TAP22EM LPPR-LPPT
Flight info
| Callsign | TAP22EM |
|---|---|
| Flight time | 0h 38m |
| Altitude | 24000 |
| Route | MANIK DCT ABRIL DCT XAMAX |
| Aircraft | A320/M-SDE3FGHIRWY/LB1 |
Departure
| Time | 2026-05-04 13:14 |
|---|---|
| Airport | Francisco de Sá Carneiro Airport (LPPR) |
Arrival
| Time | 2026-05-04 13:52 |
|---|---|
| Airport | Lisbon Humberto Delgado Airport (LPPT) |
| Time | Latitude | Longitude | Altitude | Speed | Heading |
|---|---|---|---|---|---|
| 2026-05-04 12:53 | 41.23686 | -8.67255 | 245 ft | 0 kts | 79° |
| 2026-05-04 13:08 | 41.23686 | -8.67259 | 245 ft | 3 kts | 79° |
| 2026-05-04 13:08 | 41.23681 | -8.67288 | 245 ft | 2 kts | 78° |
| 2026-05-04 13:08 | 41.23679 | -8.67321 | 243 ft | 4 kts | 103° |
| 2026-05-04 13:09 | 41.23690 | -8.67352 | 242 ft | 4 kts | 134° |
| 2026-05-04 13:09 | 41.23710 | -8.67376 | 241 ft | 4 kts | 131° |
| 2026-05-04 13:09 | 41.23714 | -8.67382 | 241 ft | 0 kts | 126° |
| 2026-05-04 13:11 | 41.23713 | -8.67380 | 241 ft | 1 kts | 132° |
| 2026-05-04 13:11 | 41.23693 | -8.67377 | 241 ft | 5 kts | 181° |
| 2026-05-04 13:12 | 41.23651 | -8.67413 | 239 ft | 11 kts | 232° |
| 2026-05-04 13:12 | 41.23624 | -8.67527 | 234 ft | 13 kts | 258° |
| 2026-05-04 13:12 | 41.23610 | -8.67623 | 233 ft | 11 kts | 259° |
| 2026-05-04 13:12 | 41.23593 | -8.67741 | 233 ft | 13 kts | 264° |
| 2026-05-04 13:13 | 41.23636 | -8.67818 | 232 ft | 0 kts | 345° |
| 2026-05-04 13:13 | 41.23658 | -8.67825 | 231 ft | 26 kts | 347° |
| 2026-05-04 13:13 | 41.24185 | -8.67964 | 214 ft | 120 kts | 348° |
| 2026-05-04 13:13 | 41.25199 | -8.68223 | 561 ft | 157 kts | 347° |
| 2026-05-04 13:14 | 41.26294 | -8.68501 | 1512 ft | 163 kts | 346° |
| 2026-05-04 13:14 | 41.27465 | -8.68814 | 2225 ft | 186 kts | 346° |
| 2026-05-04 13:14 | 41.28818 | -8.69179 | 2941 ft | 210 kts | 346° |
| 2026-05-04 13:14 | 41.30344 | -8.69587 | 3694 ft | 236 kts | 347° |
| 2026-05-04 13:15 | 41.32041 | -8.70037 | 4513 ft | 258 kts | 347° |
| 2026-05-04 13:15 | 41.33835 | -8.70507 | 5647 ft | 266 kts | 347° |
| 2026-05-04 13:15 | 41.35672 | -8.70988 | 6846 ft | 272 kts | 347° |
| 2026-05-04 13:15 | 41.37543 | -8.71479 | 8031 ft | 277 kts | 347° |
| 2026-05-04 13:16 | 41.39387 | -8.72238 | 9147 ft | 281 kts | 330° |
| 2026-05-04 13:16 | 41.40842 | -8.73921 | 10201 ft | 286 kts | 306° |
| 2026-05-04 13:16 | 41.41653 | -8.76439 | 10742 ft | 311 kts | 277° |
| 2026-05-04 13:16 | 41.41470 | -8.79424 | 11231 ft | 336 kts | 254° |
| 2026-05-04 13:17 | 41.40417 | -8.82267 | 12006 ft | 349 kts | 233° |
| 2026-05-04 13:17 | 41.38596 | -8.84434 | 12912 ft | 357 kts | 211° |
| 2026-05-04 13:17 | 41.36232 | -8.85541 | 13820 ft | 364 kts | 193° |
| 2026-05-04 13:17 | 41.33763 | -8.86224 | 14751 ft | 369 kts | 192° |
| 2026-05-04 13:18 | 41.31222 | -8.86875 | 15639 ft | 373 kts | 192° |
| 2026-05-04 13:18 | 41.28653 | -8.87514 | 16486 ft | 378 kts | 192° |
| 2026-05-04 13:18 | 41.26049 | -8.88161 | 17296 ft | 383 kts | 192° |
| 2026-05-04 13:18 | 41.23414 | -8.88828 | 18073 ft | 387 kts | 192° |
| 2026-05-04 13:19 | 41.20755 | -8.89515 | 18829 ft | 392 kts | 192° |
| 2026-05-04 13:19 | 41.18059 | -8.90219 | 19546 ft | 396 kts | 192° |
| 2026-05-04 13:19 | 41.15340 | -8.90934 | 20263 ft | 400 kts | 192° |
| 2026-05-04 13:19 | 41.12592 | -8.91657 | 20941 ft | 404 kts | 192° |
| 2026-05-04 13:20 | 41.09812 | -8.92387 | 21594 ft | 409 kts | 192° |
| 2026-05-04 13:20 | 41.07009 | -8.93118 | 22212 ft | 413 kts | 192° |
| 2026-05-04 13:20 | 41.04214 | -8.93845 | 22779 ft | 416 kts | 192° |
| 2026-05-04 13:20 | 41.01365 | -8.94584 | 22968 ft | 417 kts | 192° |
| 2026-05-04 13:21 | 40.98514 | -8.95326 | 23008 ft | 417 kts | 192° |
| 2026-05-04 13:21 | 40.95661 | -8.96069 | 23010 ft | 417 kts | 192° |
| 2026-05-04 13:21 | 40.92809 | -8.96810 | 23008 ft | 417 kts | 192° |
| 2026-05-04 13:21 | 40.89961 | -8.97552 | 23009 ft | 417 kts | 192° |
| 2026-05-04 13:22 | 40.87112 | -8.98293 | 23010 ft | 417 kts | 192° |
| 2026-05-04 13:22 | 40.84260 | -8.99029 | 23009 ft | 417 kts | 192° |
| 2026-05-04 13:22 | 40.81444 | -8.99756 | 23008 ft | 417 kts | 192° |
| 2026-05-04 13:22 | 40.78597 | -9.00489 | 23008 ft | 417 kts | 192° |
| 2026-05-04 13:23 | 40.75746 | -9.01225 | 23008 ft | 417 kts | 192° |
| 2026-05-04 13:23 | 40.72900 | -9.01966 | 23010 ft | 417 kts | 192° |
| 2026-05-04 13:23 | 40.70057 | -9.02709 | 23009 ft | 417 kts | 192° |
| 2026-05-04 13:23 | 40.67209 | -9.03450 | 23009 ft | 417 kts | 192° |
| 2026-05-04 13:24 | 40.64361 | -9.04185 | 23010 ft | 417 kts | 192° |
| 2026-05-04 13:24 | 40.61513 | -9.04915 | 23010 ft | 417 kts | 192° |
| 2026-05-04 13:24 | 40.58659 | -9.05642 | 23010 ft | 417 kts | 192° |
| 2026-05-04 13:25 | 40.52956 | -9.07105 | 23010 ft | 417 kts | 192° |
| 2026-05-04 13:25 | 40.50106 | -9.07837 | 23010 ft | 417 kts | 192° |
| 2026-05-04 13:25 | 40.47258 | -9.08567 | 23010 ft | 417 kts | 192° |
| 2026-05-04 13:25 | 40.44402 | -9.09301 | 23008 ft | 417 kts | 192° |
| 2026-05-04 13:26 | 40.41592 | -9.10024 | 23009 ft | 417 kts | 192° |
| 2026-05-04 13:26 | 40.38746 | -9.10755 | 23010 ft | 417 kts | 192° |
| 2026-05-04 13:26 | 40.35886 | -9.11489 | 23009 ft | 417 kts | 192° |
| 2026-05-04 13:26 | 40.33035 | -9.12220 | 23009 ft | 417 kts | 192° |
| 2026-05-04 13:27 | 40.30188 | -9.12945 | 23009 ft | 417 kts | 192° |
| 2026-05-04 13:27 | 40.27332 | -9.13670 | 23009 ft | 417 kts | 192° |
| 2026-05-04 13:27 | 40.24516 | -9.14384 | 23008 ft | 417 kts | 192° |
| 2026-05-04 13:27 | 40.21628 | -9.15118 | 23009 ft | 417 kts | 192° |
| 2026-05-04 13:28 | 40.18810 | -9.15832 | 23007 ft | 417 kts | 192° |
| 2026-05-04 13:28 | 40.15955 | -9.16554 | 23010 ft | 417 kts | 192° |
| 2026-05-04 13:28 | 40.13098 | -9.17276 | 23010 ft | 417 kts | 192° |
| 2026-05-04 13:28 | 40.10249 | -9.17996 | 23010 ft | 417 kts | 192° |
| 2026-05-04 13:29 | 40.07394 | -9.18721 | 23010 ft | 417 kts | 192° |
| 2026-05-04 13:29 | 40.04578 | -9.19440 | 23008 ft | 417 kts | 192° |
| 2026-05-04 13:29 | 40.01731 | -9.20164 | 23009 ft | 417 kts | 192° |
| 2026-05-04 13:29 | 39.98874 | -9.20884 | 23008 ft | 417 kts | 192° |
| 2026-05-04 13:30 | 39.96019 | -9.21602 | 23010 ft | 417 kts | 192° |
| 2026-05-04 13:30 | 39.93170 | -9.22318 | 23009 ft | 417 kts | 192° |
| 2026-05-04 13:30 | 39.91283 | -9.22792 | 23009 ft | 417 kts | 192° |
| 2026-05-04 13:30 | 39.88427 | -9.23510 | 23010 ft | 417 kts | 192° |
| 2026-05-04 13:31 | 39.85577 | -9.24228 | 23009 ft | 417 kts | 192° |
| 2026-05-04 13:31 | 39.81795 | -9.25181 | 23008 ft | 417 kts | 192° |
| 2026-05-04 13:31 | 39.78948 | -9.25896 | 23009 ft | 417 kts | 192° |
| 2026-05-04 13:31 | 39.77021 | -9.26380 | 23010 ft | 417 kts | 192° |
| 2026-05-04 13:32 | 39.74173 | -9.27096 | 23009 ft | 417 kts | 192° |
| 2026-05-04 13:32 | 39.71326 | -9.27813 | 23009 ft | 417 kts | 192° |
| 2026-05-04 13:32 | 39.68473 | -9.28528 | 23009 ft | 417 kts | 192° |
| 2026-05-04 13:32 | 39.65625 | -9.29239 | 23009 ft | 417 kts | 192° |
| 2026-05-04 13:33 | 39.62774 | -9.29951 | 23009 ft | 417 kts | 192° |
| 2026-05-04 13:33 | 39.59958 | -9.30655 | 23009 ft | 417 kts | 192° |
| 2026-05-04 13:33 | 39.57105 | -9.31367 | 23009 ft | 417 kts | 192° |
| 2026-05-04 13:33 | 39.54253 | -9.32079 | 23007 ft | 417 kts | 192° |
| 2026-05-04 13:34 | 39.51401 | -9.32791 | 23009 ft | 417 kts | 192° |
| 2026-05-04 13:34 | 39.48549 | -9.33500 | 23009 ft | 417 kts | 192° |
| 2026-05-04 13:34 | 39.45699 | -9.34210 | 23009 ft | 417 kts | 192° |
| 2026-05-04 13:34 | 39.42839 | -9.34920 | 23010 ft | 417 kts | 192° |
| 2026-05-04 13:35 | 39.39990 | -9.35628 | 22898 ft | 417 kts | 192° |
| 2026-05-04 13:35 | 39.34194 | -9.37068 | 20577 ft | 430 kts | 192° |
| 2026-05-04 13:35 | 39.31263 | -9.37795 | 20084 ft | 428 kts | 192° |
| 2026-05-04 13:36 | 39.28339 | -9.38517 | 19699 ft | 426 kts | 192° |
| 2026-05-04 13:36 | 39.25426 | -9.39235 | 19319 ft | 424 kts | 192° |
| 2026-05-04 13:36 | 39.22534 | -9.39947 | 18948 ft | 422 kts | 192° |
| 2026-05-04 13:36 | 39.19688 | -9.40647 | 18579 ft | 420 kts | 192° |
| 2026-05-04 13:37 | 39.16820 | -9.41353 | 18202 ft | 418 kts | 192° |
| 2026-05-04 13:37 | 39.13973 | -9.42055 | 17824 ft | 415 kts | 192° |
| 2026-05-04 13:37 | 39.11137 | -9.42759 | 17449 ft | 413 kts | 192° |
| 2026-05-04 13:37 | 39.08317 | -9.43456 | 17073 ft | 411 kts | 192° |
| 2026-05-04 13:38 | 39.05520 | -9.44148 | 16698 ft | 408 kts | 192° |
| 2026-05-04 13:38 | 39.02725 | -9.44835 | 16321 ft | 406 kts | 192° |
| 2026-05-04 13:38 | 38.99989 | -9.45503 | 15950 ft | 404 kts | 192° |
| 2026-05-04 13:38 | 38.97231 | -9.46177 | 15574 ft | 402 kts | 192° |
| 2026-05-04 13:39 | 38.94489 | -9.46847 | 15198 ft | 400 kts | 192° |
| 2026-05-04 13:39 | 38.91761 | -9.47518 | 14740 ft | 397 kts | 192° |
| 2026-05-04 13:39 | 38.89058 | -9.48181 | 14214 ft | 394 kts | 192° |
| 2026-05-04 13:39 | 38.86395 | -9.48831 | 13689 ft | 385 kts | 192° |
| 2026-05-04 13:40 | 38.83785 | -9.49465 | 13163 ft | 376 kts | 192° |
| 2026-05-04 13:40 | 38.81236 | -9.50085 | 12550 ft | 370 kts | 192° |
| 2026-05-04 13:40 | 38.78744 | -9.50694 | 11856 ft | 367 kts | 192° |
| 2026-05-04 13:40 | 38.76248 | -9.51302 | 11155 ft | 363 kts | 192° |
| 2026-05-04 13:41 | 38.73776 | -9.51902 | 10449 ft | 359 kts | 192° |
| 2026-05-04 13:41 | 38.71330 | -9.52495 | 9747 ft | 355 kts | 192° |
| 2026-05-04 13:41 | 38.68922 | -9.53079 | 9044 ft | 350 kts | 192° |
| 2026-05-04 13:42 | 38.64222 | -9.54222 | 8007 ft | 331 kts | 192° |
| 2026-05-04 13:42 | 38.61994 | -9.54725 | 7679 ft | 319 kts | 187° |
| 2026-05-04 13:42 | 38.59852 | -9.54566 | 7287 ft | 300 kts | 168° |
| 2026-05-04 13:42 | 38.58012 | -9.53604 | 6895 ft | 281 kts | 149° |
| 2026-05-04 13:43 | 38.56558 | -9.52029 | 6412 ft | 269 kts | 131° |
| 2026-05-04 13:43 | 38.55586 | -9.50045 | 5912 ft | 260 kts | 113° |
| 2026-05-04 13:43 | 38.55123 | -9.47859 | 5405 ft | 251 kts | 96° |
| 2026-05-04 13:43 | 38.55155 | -9.45663 | 4898 ft | 244 kts | 80° |
| 2026-05-04 13:44 | 38.55534 | -9.43580 | 4406 ft | 238 kts | 75° |
| 2026-05-04 13:44 | 38.55923 | -9.41543 | 3981 ft | 232 kts | 76° |
| 2026-05-04 13:44 | 38.56288 | -9.39589 | 3901 ft | 219 kts | 76° |
| 2026-05-04 13:44 | 38.56622 | -9.37780 | 3896 ft | 202 kts | 76° |
| 2026-05-04 13:45 | 38.56932 | -9.36104 | 3900 ft | 189 kts | 76° |
| 2026-05-04 13:45 | 38.57234 | -9.34484 | 3907 ft | 186 kts | 76° |
| 2026-05-04 13:45 | 38.57533 | -9.32875 | 3908 ft | 186 kts | 76° |
| 2026-05-04 13:45 | 38.57830 | -9.31270 | 3906 ft | 185 kts | 76° |
| 2026-05-04 13:46 | 38.58127 | -9.29664 | 3913 ft | 186 kts | 76° |
| 2026-05-04 13:46 | 38.58425 | -9.28060 | 3909 ft | 185 kts | 76° |
| 2026-05-04 13:46 | 38.58722 | -9.26457 | 3906 ft | 185 kts | 76° |
| 2026-05-04 13:46 | 38.59070 | -9.24948 | 3921 ft | 169 kts | 64° |
| 2026-05-04 13:47 | 38.59709 | -9.23762 | 3829 ft | 158 kts | 43° |
| 2026-05-04 13:47 | 38.60577 | -9.22961 | 3680 ft | 152 kts | 22° |
| 2026-05-04 13:47 | 38.61540 | -9.22443 | 3504 ft | 150 kts | 19° |
| 2026-05-04 13:47 | 38.62504 | -9.21930 | 3315 ft | 150 kts | 19° |
| 2026-05-04 13:48 | 38.63474 | -9.21415 | 3120 ft | 152 kts | 20° |
| 2026-05-04 13:48 | 38.64451 | -9.20895 | 2917 ft | 152 kts | 20° |
| 2026-05-04 13:48 | 38.65434 | -9.20371 | 2723 ft | 153 kts | 19° |
| 2026-05-04 13:48 | 38.66427 | -9.19842 | 2509 ft | 155 kts | 19° |
| 2026-05-04 13:49 | 38.67430 | -9.19308 | 2304 ft | 157 kts | 20° |
| 2026-05-04 13:49 | 38.68433 | -9.18773 | 2103 ft | 155 kts | 20° |
| 2026-05-04 13:49 | 38.69400 | -9.18257 | 1889 ft | 149 kts | 20° |
| 2026-05-04 13:49 | 38.70334 | -9.17760 | 1703 ft | 142 kts | 19° |
| 2026-05-04 13:50 | 38.71231 | -9.17296 | 1530 ft | 137 kts | 19° |
| 2026-05-04 13:50 | 38.72112 | -9.16839 | 1370 ft | 135 kts | 19° |
| 2026-05-04 13:50 | 38.72983 | -9.16382 | 1175 ft | 135 kts | 19° |
| 2026-05-04 13:50 | 38.73843 | -9.15906 | 974 ft | 134 kts | 21° |
| 2026-05-04 13:51 | 38.74690 | -9.15422 | 802 ft | 133 kts | 20° |
| 2026-05-04 13:51 | 38.75551 | -9.14973 | 628 ft | 133 kts | 20° |
| 2026-05-04 13:51 | 38.76402 | -9.14518 | 428 ft | 132 kts | 20° |
| 2026-05-04 13:51 | 38.77216 | -9.14086 | 361 ft | 110 kts | 22° |
| 2026-05-04 13:52 | 38.78131 | -9.13596 | 369 ft | 40 kts | 25° |
| 2026-05-04 13:52 | 38.78314 | -9.13444 | 365 ft | 25 kts | 46° |
| 2026-05-04 13:52 | 38.78378 | -9.13322 | 363 ft | 9 kts | 83° |
| 2026-05-04 13:53 | 38.78355 | -9.13271 | 360 ft | 7 kts | 147° |
| 2026-05-04 13:53 | 38.78300 | -9.13275 | 365 ft | 9 kts | 199° |
| 2026-05-04 13:53 | 38.78240 | -9.13305 | 359 ft | 9 kts | 202° |
| 2026-05-04 13:54 | 38.78111 | -9.13372 | 361 ft | 10 kts | 201° |
| 2026-05-04 13:54 | 38.78036 | -9.13409 | 361 ft | 12 kts | 192° |
| 2026-05-04 13:54 | 38.77822 | -9.13360 | 347 ft | 15 kts | 167° |
| 2026-05-04 13:55 | 38.77694 | -9.13329 | 338 ft | 17 kts | 168° |
| 2026-05-04 13:55 | 38.77484 | -9.13294 | 335 ft | 17 kts | 168° |
| 2026-05-04 13:55 | 38.77366 | -9.13265 | 338 ft | 16 kts | 170° |
| 2026-05-04 13:56 | 38.77260 | -9.13241 | 338 ft | 9 kts | 168° |
| 2026-05-04 13:56 | 38.77187 | -9.13221 | 335 ft | 13 kts | 168° |
| 2026-05-04 13:56 | 38.77024 | -9.13178 | 339 ft | 10 kts | 167° |
| 2026-05-04 13:57 | 38.76974 | -9.13155 | 335 ft | 6 kts | 130° |
| 2026-05-04 13:57 | 38.76976 | -9.13115 | 335 ft | 4 kts | 77° |
| 2026-05-04 13:58 | 38.76982 | -9.13077 | 336 ft | 0 kts | 79° |